createdAt,value
2022-10-28T00:01:03.683Z,12.10
2022-10-28T00:03:30.588Z,12.10
2022-10-28T00:06:24.069Z,12.10
2022-10-28T00:08:51.516Z,12.10
2022-10-28T00:11:24.602Z,12.10
2022-10-28T00:13:55.090Z,12.10
2022-10-28T00:16:24.770Z,12.10
2022-10-28T00:18:54.000Z,12.20
2022-10-28T00:21:27.735Z,12.20
2022-10-28T00:23:55.645Z,12.20
2022-10-28T00:26:28.711Z,12.10
2022-10-28T00:28:59.891Z,12.10
2022-10-28T00:31:28.386Z,12.10
2022-10-28T00:33:55.975Z,12.10
2022-10-28T00:36:25.683Z,12.10
2022-10-28T00:38:54.625Z,12.10
2022-10-28T00:41:24.694Z,12.10
2022-10-28T00:43:56.947Z,12.10
2022-10-28T00:46:48.106Z,12.10
2022-10-28T00:49:14.804Z,12.10
2022-10-28T00:51:43.537Z,12.20
2022-10-28T00:54:12.255Z,12.20
2022-10-28T00:56:43.343Z,12.20
2022-10-28T00:59:19.037Z,12.20
2022-10-28T01:01:46.489Z,12.20
2022-10-28T01:04:14.156Z,12.20
2022-10-28T01:06:42.645Z,12.20
2022-10-28T01:09:09.539Z,12.20
2022-10-28T01:12:03.621Z,12.20
2022-10-28T01:15:04.212Z,12.20
2022-10-28T01:17:46.500Z,12.20
2022-10-28T01:20:40.874Z,12.30
2022-10-28T01:23:25.408Z,12.20
2022-10-28T01:26:14.919Z,12.30
2022-10-28T01:29:21.646Z,12.30
2022-10-28T01:32:09.128Z,12.30
2022-10-28T01:35:16.747Z,12.20
2022-10-28T01:38:14.557Z,12.20
2022-10-28T01:41:12.614Z,12.20
2022-10-28T01:43:48.359Z,12.20
2022-10-28T01:46:18.854Z,12.20
2022-10-28T01:48:51.465Z,12.20
2022-10-28T01:51:35.866Z,12.20
2022-10-28T01:54:06.501Z,12.20
2022-10-28T01:56:37.464Z,12.20
2022-10-28T01:59:05.327Z,12.20
2022-10-28T02:01:34.184Z,12.20
2022-10-28T02:04:02.144Z,12.20
2022-10-28T02:06:31.027Z,12.30
2022-10-28T02:09:27.264Z,12.30
2022-10-28T02:11:57.060Z,12.30
2022-10-28T02:14:39.679Z,12.30
2022-10-28T02:17:45.557Z,12.20
2022-10-28T02:20:36.841Z,12.20
2022-10-28T02:23:20.213Z,12.10
2022-10-28T02:25:56.672Z,12.10
2022-10-28T02:28:46.425Z,12.20
2022-10-28T02:31:30.433Z,12.20
2022-10-28T02:34:02.745Z,12.20
2022-10-28T02:36:34.037Z,12.20
2022-10-28T02:39:02.412Z,12.20
2022-10-28T02:41:48.767Z,12.20
2022-10-28T02:44:20.597Z,12.30
2022-10-28T02:46:50.482Z,12.30
2022-10-28T02:49:17.496Z,12.30
2022-10-28T02:51:54.383Z,12.30
2022-10-28T02:54:47.830Z,12.30
2022-10-28T02:57:18.563Z,12.30
2022-10-28T02:59:59.815Z,12.30
2022-10-28T03:02:27.536Z,12.30
2022-10-28T03:04:54.735Z,12.20
2022-10-28T03:07:21.789Z,12.20
2022-10-28T03:09:48.668Z,12.20
2022-10-28T03:12:15.583Z,12.20
2022-10-28T03:14:42.568Z,12.10
2022-10-28T03:17:09.431Z,12.10
2022-10-28T03:19:36.342Z,12.10
2022-10-28T03:22:03.260Z,12.00
2022-10-28T03:24:30.191Z,12.00
2022-10-28T03:26:57.087Z,11.90
2022-10-28T03:29:24.017Z,11.90
2022-10-28T03:31:50.875Z,11.90
2022-10-28T03:34:17.947Z,11.80
2022-10-28T03:36:44.840Z,11.80
2022-10-28T03:39:11.733Z,11.80
2022-10-28T03:41:38.651Z,11.70
2022-10-28T03:44:05.911Z,11.70
2022-10-28T03:46:35.171Z,11.60
2022-10-28T03:49:03.602Z,11.50
2022-10-28T03:51:30.676Z,11.40
2022-10-28T03:53:57.530Z,11.30
2022-10-28T03:56:24.430Z,11.30
2022-10-28T04:01:23.156Z,11.20
2022-10-28T04:03:50.077Z,11.10
2022-10-28T04:06:17.156Z,11.00
2022-10-28T04:08:44.063Z,10.90
2022-10-28T04:11:10.926Z,10.90
2022-10-28T04:13:37.782Z,10.80
2022-10-28T04:16:05.086Z,10.80
2022-10-28T04:18:32.208Z,10.70
2022-10-28T04:20:59.096Z,10.70
2022-10-28T04:23:25.927Z,10.70
2022-10-28T04:25:56.171Z,10.70
2022-10-28T04:28:26.254Z,10.70
2022-10-28T04:30:53.136Z,10.70
2022-10-28T04:33:19.991Z,10.70
2022-10-28T04:35:46.912Z,10.70
2022-10-28T04:38:15.383Z,10.70
2022-10-28T04:40:42.625Z,10.80
2022-10-28T04:43:11.810Z,10.90
2022-10-28T04:45:39.474Z,10.90
2022-10-28T04:48:06.846Z,10.80
2022-10-28T04:50:33.874Z,10.90
2022-10-28T04:53:01.128Z,10.80
2022-10-28T04:55:28.016Z,10.80
2022-10-28T04:57:56.751Z,10.70
2022-10-28T05:00:25.024Z,10.70
2022-10-28T05:02:52.297Z,10.70
2022-10-28T05:05:19.267Z,10.60
2022-10-28T05:07:46.276Z,10.60
2022-10-28T05:10:15.583Z,10.50
2022-10-28T05:12:43.214Z,10.50
2022-10-28T05:15:11.903Z,10.50
2022-10-28T05:17:40.603Z,10.50
2022-10-28T05:20:08.681Z,10.50
2022-10-28T05:22:35.725Z,10.50
2022-10-28T05:25:02.697Z,10.50
2022-10-28T05:27:29.627Z,10.60
2022-10-28T05:29:56.493Z,10.50
2022-10-28T05:32:26.586Z,10.50
2022-10-28T05:34:53.510Z,10.40
2022-10-28T05:37:20.375Z,10.40
2022-10-28T05:39:47.258Z,10.40
2022-10-28T05:42:14.115Z,10.40
2022-10-28T05:44:40.964Z,10.40
2022-10-28T05:47:07.831Z,10.40
2022-10-28T05:49:34.682Z,10.40
2022-10-28T05:52:01.610Z,10.40
2022-10-28T05:54:28.528Z,10.40
2022-10-28T05:56:55.489Z,10.50
2022-10-28T05:59:22.375Z,10.50
2022-10-28T06:01:49.279Z,10.60
2022-10-28T06:04:16.231Z,10.70
2022-10-28T06:06:43.282Z,10.80
2022-10-28T06:09:10.108Z,10.80
2022-10-28T06:11:35.568Z,10.90
2022-10-28T06:14:02.718Z,10.90
2022-10-28T06:16:29.675Z,11.00
2022-10-28T06:18:56.979Z,11.00
2022-10-28T06:21:23.903Z,11.10
2022-10-28T06:23:51.303Z,11.10
2022-10-28T06:26:18.221Z,11.20
2022-10-28T06:28:48.180Z,11.20
2022-10-28T06:31:15.026Z,11.30
2022-10-28T06:33:41.988Z,11.40
2022-10-28T06:36:08.881Z,11.40
2022-10-28T06:38:35.837Z,11.40
2022-10-28T06:41:02.827Z,11.40
2022-10-28T06:43:29.787Z,11.40
2022-10-28T06:46:01.055Z,11.50
2022-10-28T06:48:29.762Z,11.60
2022-10-28T06:50:57.767Z,11.80
2022-10-28T06:53:26.183Z,11.90
2022-10-28T06:55:54.452Z,12.00
2022-10-28T06:58:21.727Z,12.10
2022-10-28T07:00:48.643Z,12.10
2022-10-28T07:03:16.002Z,12.20
2022-10-28T07:05:43.169Z,12.20
2022-10-28T07:08:10.086Z,12.30
2022-10-28T07:10:36.934Z,12.40
2022-10-28T07:13:04.112Z,12.40
2022-10-28T07:15:31.018Z,12.50
2022-10-28T07:17:59.379Z,12.60
2022-10-28T07:20:27.906Z,12.70
2022-10-28T07:22:59.529Z,12.70
2022-10-28T07:25:28.136Z,12.80
2022-10-28T07:27:57.481Z,12.80
2022-10-28T07:30:25.365Z,12.70
2022-10-28T07:32:52.677Z,12.80
2022-10-28T07:35:20.378Z,12.80
2022-10-28T07:37:47.310Z,12.90
2022-10-28T07:40:14.591Z,13.00
2022-10-28T07:42:41.473Z,13.00
2022-10-28T07:45:09.157Z,13.20
2022-10-28T07:47:36.053Z,13.20
2022-10-28T07:50:03.567Z,13.20
2022-10-28T07:52:30.620Z,13.20
2022-10-28T07:54:57.669Z,13.30
2022-10-28T07:57:24.604Z,13.30
2022-10-28T07:59:51.505Z,13.30
2022-10-28T08:02:20.914Z,13.30
2022-10-28T08:04:47.872Z,13.40
2022-10-28T08:07:15.851Z,13.40
2022-10-28T08:09:42.992Z,13.50
2022-10-28T08:12:12.548Z,13.60
2022-10-28T08:14:39.540Z,13.60
2022-10-28T08:17:07.298Z,13.50
2022-10-28T08:19:34.468Z,13.50
2022-10-28T08:22:02.483Z,13.40
2022-10-28T08:24:29.413Z,13.40
2022-10-28T08:26:56.381Z,13.50
2022-10-28T08:29:27.674Z,13.50
2022-10-28T08:31:57.913Z,13.50
2022-10-28T08:34:29.846Z,13.60
2022-10-28T08:36:57.351Z,13.60
2022-10-28T08:39:29.353Z,13.60
2022-10-28T08:42:18.053Z,13.60
2022-10-28T08:45:11.910Z,13.60
2022-10-28T08:48:15.290Z,13.60
2022-10-28T08:50:50.485Z,13.50
2022-10-28T08:53:27.939Z,13.50
2022-10-28T08:56:05.129Z,13.50
2022-10-28T08:58:36.718Z,13.40
2022-10-28T09:01:15.331Z,13.50
2022-10-28T09:06:34.003Z,13.50
2022-10-28T09:09:17.479Z,13.60
2022-10-28T09:12:16.236Z,13.70
2022-10-28T09:15:10.300Z,13.70
2022-10-28T09:17:55.691Z,13.70
2022-10-28T09:20:48.274Z,13.70
2022-10-28T09:23:30.810Z,13.60
2022-10-28T09:26:25.355Z,13.70
2022-10-28T09:29:17.747Z,13.80
2022-10-28T09:31:53.184Z,13.70
2022-10-28T09:34:48.710Z,13.90
2022-10-28T09:37:28.122Z,13.90
2022-10-28T09:40:07.159Z,13.90
2022-10-28T09:45:21.749Z,13.80
2022-10-28T09:48:21.227Z,13.80
2022-10-28T09:50:52.359Z,13.80
2022-10-28T09:54:01.879Z,13.90
2022-10-28T09:56:30.342Z,13.90
2022-10-28T09:59:03.182Z,14.00
2022-10-28T10:01:43.599Z,14.10
2022-10-28T10:04:23.020Z,14.10
2022-10-28T10:06:59.699Z,14.20
2022-10-28T10:09:32.088Z,14.20
2022-10-28T10:12:12.510Z,14.20
2022-10-28T10:14:52.124Z,14.20
2022-10-28T10:17:37.481Z,14.10
2022-10-28T10:20:20.963Z,14.10
2022-10-28T10:22:49.309Z,14.00
2022-10-28T10:25:19.190Z,14.00
2022-10-28T10:27:55.497Z,14.00
2022-10-28T10:30:38.038Z,14.00
2022-10-28T10:33:07.182Z,14.00
2022-10-28T10:35:36.948Z,13.90
2022-10-28T10:38:06.787Z,13.90
2022-10-28T10:40:52.319Z,13.90
2022-10-28T10:43:22.088Z,14.00
2022-10-28T10:46:00.124Z,14.00
2022-10-28T10:48:28.862Z,14.10
2022-10-28T10:50:56.783Z,14.10
2022-10-28T10:53:26.525Z,14.10
2022-10-28T10:56:04.044Z,14.10
2022-10-28T10:58:34.894Z,14.10
2022-10-28T11:01:05.474Z,14.20
2022-10-28T11:03:39.861Z,14.10
2022-10-28T11:06:23.085Z,14.10
2022-10-28T11:08:56.915Z,14.00
2022-10-28T11:11:36.289Z,14.00
2022-10-28T11:14:05.117Z,13.90
2022-10-28T11:16:32.016Z,13.90
2022-10-28T11:18:58.908Z,13.80
2022-10-28T11:21:57.280Z,13.80
2022-10-28T11:24:42.145Z,13.80
2022-10-28T11:27:20.773Z,13.70
2022-10-28T11:29:48.347Z,13.60
2022-10-28T11:32:26.687Z,13.60
2022-10-28T11:35:08.362Z,13.60
2022-10-28T11:37:35.224Z,13.70
2022-10-28T11:40:27.666Z,13.80
2022-10-28T11:43:21.966Z,13.80
2022-10-28T11:46:00.613Z,13.90
2022-10-28T11:49:06.765Z,14.00
2022-10-28T11:51:47.493Z,14.00
2022-10-28T11:54:41.080Z,14.10
2022-10-28T11:57:11.186Z,14.10
2022-10-28T11:59:38.005Z,14.00
2022-10-28T12:02:49.356Z,13.90
2022-10-28T12:05:49.601Z,13.90
2022-10-28T12:08:51.007Z,13.90
2022-10-28T12:11:20.725Z,13.80
2022-10-28T12:14:03.361Z,13.70
2022-10-28T12:17:13.003Z,13.70
2022-10-28T12:19:53.963Z,13.70
2022-10-28T12:22:31.667Z,13.70
2022-10-28T12:25:06.568Z,13.70
2022-10-28T12:27:46.320Z,13.70
2022-10-28T12:30:22.827Z,13.70
2022-10-28T12:32:59.269Z,13.70
2022-10-28T12:35:31.430Z,13.70
2022-10-28T12:38:22.939Z,13.70
2022-10-28T12:40:59.880Z,13.70
2022-10-28T12:43:33.901Z,13.70
2022-10-28T12:46:02.497Z,13.70
2022-10-28T12:48:54.526Z,13.70
2022-10-28T12:51:30.329Z,13.70
2022-10-28T12:54:12.028Z,13.70
2022-10-28T12:56:53.072Z,13.70
2022-10-28T12:59:30.071Z,13.70
2022-10-28T13:02:01.440Z,13.70
2022-10-28T13:04:29.545Z,13.70
2022-10-28T13:07:21.046Z,13.80
2022-10-28T13:10:12.322Z,13.70
2022-10-28T13:13:09.347Z,13.70
2022-10-28T13:15:48.683Z,13.70
2022-10-28T13:18:34.804Z,13.60
2022-10-28T13:21:42.545Z,13.50
2022-10-28T13:24:31.216Z,13.50
2022-10-28T13:27:02.534Z,13.50
2022-10-28T13:29:34.933Z,13.40
2022-10-28T13:32:02.337Z,13.40
2022-10-28T13:34:41.080Z,13.30
2022-10-28T13:37:23.151Z,13.30
2022-10-28T13:39:50.403Z,13.30
2022-10-28T13:42:19.572Z,13.30
2022-10-28T13:45:03.677Z,13.30
2022-10-28T13:47:32.567Z,13.20
2022-10-28T13:50:08.747Z,13.20
2022-10-28T13:52:40.207Z,13.20
2022-10-28T13:55:38.522Z,13.20
2022-10-28T13:58:19.059Z,13.20
2022-10-28T14:00:47.967Z,13.20
2022-10-28T14:03:21.801Z,13.20
2022-10-28T14:05:49.045Z,13.20
2022-10-28T14:08:24.779Z,13.20
2022-10-28T14:11:11.805Z,13.20
2022-10-28T14:13:51.758Z,13.20
2022-10-28T14:16:26.301Z,13.20
2022-10-28T14:19:00.462Z,13.20
2022-10-28T14:21:50.569Z,13.10
2022-10-28T14:24:41.082Z,13.10
2022-10-28T14:27:15.911Z,13.00
2022-10-28T14:29:54.966Z,13.00
2022-10-28T14:32:31.058Z,13.00
2022-10-28T14:35:26.437Z,12.90
2022-10-28T14:38:08.295Z,12.90
2022-10-28T14:41:17.115Z,12.90
2022-10-28T14:43:50.264Z,12.90
2022-10-28T14:46:28.868Z,12.90
2022-10-28T14:49:02.788Z,12.90
2022-10-28T14:51:41.970Z,12.80
2022-10-28T14:54:17.162Z,12.80
2022-10-28T14:56:45.232Z,12.70
2022-10-28T14:59:36.382Z,12.70
2022-10-28T15:02:17.378Z,12.60
2022-10-28T15:04:46.937Z,12.60
2022-10-28T15:07:18.200Z,12.50
2022-10-28T15:09:48.933Z,12.50
2022-10-28T15:12:17.762Z,12.50
2022-10-28T15:14:53.274Z,12.50
2022-10-28T15:17:24.454Z,12.50
2022-10-28T15:19:53.939Z,12.50
2022-10-28T15:22:33.443Z,12.50
2022-10-28T15:25:06.217Z,12.50
2022-10-28T15:27:36.135Z,12.50
2022-10-28T15:30:19.050Z,12.50
2022-10-28T15:32:46.010Z,12.60
2022-10-28T15:35:45.466Z,12.60
2022-10-28T15:38:21.375Z,12.60
2022-10-28T15:40:49.082Z,12.60
2022-10-28T15:43:30.854Z,12.60
2022-10-28T15:46:16.283Z,12.60
2022-10-28T15:48:43.229Z,12.60
2022-10-28T15:51:18.351Z,12.60
2022-10-28T15:54:09.419Z,12.50
2022-10-28T15:56:53.253Z,12.40
2022-10-28T15:59:22.605Z,12.40
2022-10-28T16:01:49.636Z,12.40
2022-10-28T16:04:23.683Z,12.40
2022-10-28T16:06:57.201Z,12.40
2022-10-28T16:09:33.724Z,12.40
2022-10-28T16:12:20.264Z,12.40
2022-10-28T16:15:00.684Z,12.30
2022-10-28T16:17:34.040Z,12.20
2022-10-28T16:20:17.199Z,12.20
2022-10-28T16:22:46.692Z,12.20
2022-10-28T16:25:18.877Z,12.20
2022-10-28T16:27:46.006Z,12.30
2022-10-28T16:30:13.213Z,12.30
2022-10-28T16:32:42.673Z,12.40
2022-10-28T16:35:21.083Z,12.50
2022-10-28T16:37:53.721Z,12.50
2022-10-28T16:40:49.912Z,12.50
2022-10-28T16:43:19.936Z,12.60
2022-10-28T16:45:48.244Z,12.60
2022-10-28T16:48:16.833Z,12.60
2022-10-28T16:50:49.158Z,12.60
2022-10-28T16:53:16.561Z,12.60
2022-10-28T16:55:43.634Z,12.70
2022-10-28T16:58:10.924Z,12.70
2022-10-28T17:00:38.351Z,12.70
2022-10-28T17:03:13.551Z,12.70
2022-10-28T17:05:43.066Z,12.70
2022-10-28T17:08:11.469Z,12.80
2022-10-28T17:10:42.744Z,12.70
2022-10-28T17:13:12.811Z,12.80
2022-10-28T17:15:40.623Z,12.70
2022-10-28T17:18:09.433Z,12.80
2022-10-28T17:20:36.515Z,12.80
2022-10-28T17:23:05.500Z,12.80
2022-10-28T17:25:32.408Z,12.80
2022-10-28T17:27:59.438Z,12.80
2022-10-28T17:30:26.428Z,12.80
2022-10-28T17:32:54.475Z,12.80
2022-10-28T17:35:22.572Z,12.80
2022-10-28T17:37:49.602Z,12.80
2022-10-28T17:40:16.716Z,12.80
2022-10-28T17:42:43.627Z,12.80
2022-10-28T17:45:11.502Z,12.80
2022-10-28T17:47:38.390Z,12.80
2022-10-28T17:50:05.714Z,12.80
2022-10-28T17:52:35.711Z,12.70
2022-10-28T17:55:05.667Z,12.80
2022-10-28T17:57:32.580Z,12.80
2022-10-28T17:59:59.560Z,12.70
2022-10-28T18:02:26.850Z,12.80
2022-10-28T18:04:53.774Z,12.80
2022-10-28T18:07:20.681Z,12.80
2022-10-28T18:09:47.596Z,12.80
2022-10-28T18:12:14.471Z,12.90
2022-10-28T18:14:41.372Z,12.80
2022-10-28T18:17:08.287Z,12.80
2022-10-28T18:19:35.150Z,12.90
2022-10-28T18:22:04.989Z,12.90
2022-10-28T18:24:34.499Z,12.90
2022-10-28T18:27:01.385Z,12.90
2022-10-28T18:29:28.295Z,12.90
2022-10-28T18:31:56.724Z,12.90
2022-10-28T18:34:23.975Z,12.90
2022-10-28T18:36:51.726Z,12.90
2022-10-28T18:39:18.617Z,12.90
2022-10-28T18:41:45.541Z,12.90
2022-10-28T18:44:14.696Z,13.00
2022-10-28T18:46:42.419Z,13.00
2022-10-28T18:49:09.349Z,13.00
2022-10-28T18:51:36.486Z,13.00
2022-10-28T18:54:03.791Z,13.00
2022-10-28T18:56:31.076Z,13.00
2022-10-28T18:59:01.427Z,13.00
2022-10-28T19:01:29.440Z,13.00
2022-10-28T19:03:58.396Z,13.00
2022-10-28T19:06:26.317Z,13.10
2022-10-28T19:08:55.197Z,13.00
2022-10-28T19:11:29.920Z,13.00
2022-10-28T19:13:58.944Z,13.00
2022-10-28T19:16:27.424Z,13.00
2022-10-28T19:18:58.075Z,13.10
2022-10-28T19:21:25.900Z,13.10
2022-10-28T19:23:53.178Z,13.10
2022-10-28T19:26:24.238Z,13.10
2022-10-28T19:28:51.746Z,13.10
2022-10-28T19:31:24.039Z,13.10
2022-10-28T19:33:53.165Z,13.00
2022-10-28T19:36:34.174Z,13.10
2022-10-28T19:39:00.946Z,13.10
2022-10-28T19:41:34.366Z,13.10
2022-10-28T19:44:02.576Z,13.00
2022-10-28T19:47:09.888Z,13.10
2022-10-28T19:49:40.632Z,13.10
2022-10-28T19:52:10.452Z,13.10
2022-10-28T19:54:46.562Z,13.10
2022-10-28T19:59:45.468Z,13.00
2022-10-28T20:02:12.412Z,13.00
2022-10-28T20:04:40.196Z,13.00
2022-10-28T20:07:07.038Z,13.00
2022-10-28T20:09:33.869Z,13.10
2022-10-28T20:12:01.955Z,13.10
2022-10-28T20:14:29.211Z,13.10
2022-10-28T20:16:56.170Z,13.10
2022-10-28T20:19:23.004Z,13.10
2022-10-28T20:21:50.896Z,13.10
2022-10-28T20:24:17.739Z,13.20
2022-10-28T20:26:44.597Z,13.20
2022-10-28T20:29:11.536Z,13.20
2022-10-28T20:31:39.139Z,13.30
2022-10-28T20:34:06.863Z,13.30
2022-10-28T20:36:38.303Z,13.40
2022-10-28T20:39:11.695Z,13.40
2022-10-28T20:41:40.000Z,13.40
2022-10-28T20:44:07.586Z,13.50
2022-10-28T20:46:35.124Z,13.50
2022-10-28T20:49:03.010Z,13.50
2022-10-28T20:51:31.870Z,13.60
2022-10-28T20:53:58.827Z,13.60
2022-10-28T20:56:27.858Z,13.60
2022-10-28T20:58:55.810Z,13.70
2022-10-28T21:01:28.827Z,13.70
2022-10-28T21:03:58.033Z,13.70
2022-10-28T21:06:25.406Z,13.70
2022-10-28T21:08:53.630Z,13.70
2022-10-28T21:11:22.869Z,13.70
2022-10-28T21:13:52.558Z,13.80
2022-10-28T21:16:20.439Z,13.80
2022-10-28T21:18:47.355Z,13.80
2022-10-28T21:21:14.761Z,13.70
2022-10-28T21:23:41.633Z,13.80
2022-10-28T21:26:11.276Z,13.80
2022-10-28T21:28:41.392Z,13.70
2022-10-28T21:31:13.717Z,13.80
2022-10-28T21:33:41.745Z,13.80
2022-10-28T21:36:12.493Z,13.70
2022-10-28T21:38:39.697Z,13.80
2022-10-28T21:41:10.978Z,13.70
2022-10-28T21:43:39.850Z,13.80
2022-10-28T21:46:07.396Z,13.80
2022-10-28T21:48:35.706Z,13.70
2022-10-28T21:51:08.500Z,13.70
2022-10-28T21:53:39.425Z,13.70
2022-10-28T21:56:16.536Z,13.70
2022-10-28T21:58:44.272Z,13.70
2022-10-28T22:01:16.221Z,13.70
2022-10-28T22:03:43.440Z,13.60
2022-10-28T22:06:10.430Z,13.60
2022-10-28T22:08:37.405Z,13.60
2022-10-28T22:11:14.210Z,13.60
2022-10-28T22:13:41.442Z,13.60
2022-10-28T22:16:11.708Z,13.60
2022-10-28T22:18:39.234Z,13.50
2022-10-28T22:21:08.875Z,13.50
2022-10-28T22:23:36.868Z,13.50
2022-10-28T22:26:05.920Z,13.50
2022-10-28T22:28:32.914Z,13.40
2022-10-28T22:31:01.669Z,13.40
2022-10-28T22:33:29.032Z,13.40
2022-10-28T22:35:59.939Z,13.40
2022-10-28T22:38:27.023Z,13.40
2022-10-28T22:41:04.376Z,13.40
2022-10-28T22:43:31.384Z,13.40
2022-10-28T22:45:58.919Z,13.30
2022-10-28T22:48:26.673Z,13.40
2022-10-28T22:50:53.749Z,13.40
2022-10-28T22:53:20.697Z,13.40
2022-10-28T22:55:47.910Z,13.40
2022-10-28T22:58:16.250Z,13.40
2022-10-28T23:00:43.588Z,13.40
2022-10-28T23:03:14.843Z,13.40
2022-10-28T23:05:42.072Z,13.50
2022-10-28T23:08:14.693Z,13.40
2022-10-28T23:10:41.613Z,13.40
2022-10-28T23:13:12.406Z,13.40
2022-10-28T23:15:39.287Z,13.30
2022-10-28T23:18:06.141Z,13.40
2022-10-28T23:20:35.797Z,13.40
2022-10-28T23:23:02.945Z,13.40
2022-10-28T23:25:29.974Z,13.40
2022-10-28T23:27:57.439Z,13.30
2022-10-28T23:30:24.805Z,13.30
2022-10-28T23:32:51.642Z,13.30
2022-10-28T23:35:18.577Z,13.30
2022-10-28T23:37:45.419Z,13.30
2022-10-28T23:40:12.512Z,13.30
2022-10-28T23:42:39.348Z,13.30
2022-10-28T23:45:07.090Z,13.30
2022-10-28T23:47:34.281Z,13.30
2022-10-28T23:50:01.122Z,13.30
2022-10-28T23:52:28.000Z,13.30
2022-10-28T23:54:54.903Z,13.30
2022-10-28T23:57:21.751Z,13.30
2022-10-28T23:59:48.596Z,13.30
